Time;durP1;ratioP1;P1;durP2;ratioP2;P2;SDS_P1;SDS_P2;PMS_P1;PMS_P2;Temp;Humidity;BMP_temperature;BMP_pressure;BME280_temperature;BME280_humidity;BME280_pressure;Samples;Min_cycle;Max_cycle;Signal;HPM_P1;HPM_P2
2024/01/09 00:03:37;;;;;;;105.60;51.30;;;22.90;47.00;;;;;;222121;1265;24225;-50
2024/01/09 00:08:44;;;;;;;105.50;51.60;;;22.70;47.20;;;;;;222119;1262;22515;-49
2024/01/09 00:13:48;;;;;;;96.20;47.50;;;22.50;47.40;;;;;;222505;1265;26430;-49
2024/01/09 00:18:55;;;;;;;97.60;48.40;;;22.60;47.40;;;;;;222591;1262;25394;-54
2024/01/09 00:24:00;;;;;;;95.50;47.60;;;22.70;46.80;;;;;;222165;1268;22523;-53
2024/01/09 00:29:04;;;;;;;97.30;49.20;;;22.90;46.70;;;;;;222196;1254;24066;-56
2024/01/09 00:34:08;;;;;;;92.20;45.60;;;23.10;46.30;;;;;;222184;1268;22595;-57
2024/01/09 00:39:13;;;;;;;87.10;43.20;;;23.10;46.10;;;;;;222705;1249;24241;-56
2024/01/09 00:44:17;;;;;;;75.50;40.90;;;23.10;45.90;;;;;;222272;1266;25211;-56
2024/01/09 00:49:21;;;;;;;86.30;41.20;;;23.30;45.80;;;;;;222492;1263;22703;-57
2024/01/09 00:54:25;;;;;;;74.70;40.20;;;23.20;45.50;;;;;;222145;1266;22510;-55
2024/01/09 00:59:30;;;;;;;74.80;39.80;;;23.20;45.40;;;;;;222426;1268;24199;-56
2024/01/09 01:04:38;;;;;;;75.40;38.20;;;23.20;45.50;;;;;;222236;1256;24352;-56
2024/01/09 01:09:42;;;;;;;74.10;38.60;;;23.10;45.40;;;;;;224264;1265;24354;-55
2024/01/09 01:14:46;;;;;;;74.80;38.10;;;23.10;45.20;;;;;;222608;1262;22737;-56
2024/01/09 01:19:50;;;;;;;67.70;37.00;;;23.10;45.10;;;;;;225215;1262;22570;-56
2024/01/09 01:24:54;;;;;;;63.80;34.90;;;23.30;45.30;;;;;;223536;1266;23899;-54
2024/01/09 01:29:58;;;;;;;62.70;36.10;;;23.30;44.80;;;;;;222249;1268;24225;-58
2024/01/09 01:35:04;;;;;;;64.50;35.30;;;23.20;44.70;;;;;;222059;1268;24433;-57
2024/01/09 01:40:09;;;;;;;60.20;34.20;;;23.10;44.80;;;;;;222303;1268;22511;-58
2024/01/09 01:45:17;;;;;;;60.90;33.10;;;23.10;44.70;;;;;;222221;1254;22798;-58
2024/01/09 01:50:22;;;;;;;57.50;32.40;;;23.10;44.80;;;;;;222192;1265;25505;-57
2024/01/09 01:55:29;;;;;;;51.80;31.80;;;23.10;44.70;;;;;;222154;1266;23252;-56
2024/01/09 02:00:34;;;;;;;58.00;33.30;;;23.10;44.50;;;;;;222097;1267;23805;-57
2024/01/09 02:05:39;;;;;;;55.10;32.20;;;23.20;44.60;;;;;;222791;1266;25354;-57
2024/01/09 02:10:43;;;;;;;45.00;30.10;;;23.20;44.40;;;;;;222515;1268;25274;-55
2024/01/09 02:15:47;;;;;;;51.90;30.60;;;23.10;44.50;;;;;;222808;1267;24246;-56
2024/01/09 02:20:52;;;;;;;48.30;29.60;;;23.10;44.20;;;;;;222551;1268;24203;-57
2024/01/09 02:25:57;;;;;;;45.90;27.70;;;23.10;44.20;;;;;;222562;1263;25097;-56
2024/01/09 02:31:13;;;;;;;48.60;27.90;;;22.90;44.30;;;;;;222254;1268;25262;-56
2024/01/09 02:36:17;;;;;;;42.40;26.80;;;22.70;44.80;;;;;;222094;1268;22517;-55
2024/01/09 02:41:21;;;;;;;44.10;26.10;;;22.80;45.00;;;;;;221866;1268;23154;-55
2024/01/09 02:46:26;;;;;;;44.80;27.20;;;22.80;44.50;;;;;;222144;1257;24229;-56
2024/01/09 02:51:31;;;;;;;45.20;27.00;;;22.90;44.50;;;;;;222071;1255;22677;-56
2024/01/09 02:56:38;;;;;;;45.50;27.50;;;23.00;44.30;;;;;;222420;1263;24302;-56
2024/01/09 03:01:43;;;;;;;39.70;26.20;;;23.00;44.20;;;;;;222449;1266;22970;-56
2024/01/09 03:06:47;;;;;;;35.80;25.10;;;23.10;44.10;;;;;;222372;1268;24208;-56
2024/01/09 03:11:53;;;;;;;35.80;24.60;;;23.10;44.10;;;;;;222339;1265;24236;-56
2024/01/09 03:16:57;;;;;;;36.40;23.40;;;23.10;44.00;;;;;;223453;1267;22571;-56
2024/01/09 03:22:02;;;;;;;34.30;23.80;;;23.10;44.30;;;;;;225032;1266;22606;-56
2024/01/09 03:27:06;;;;;;;37.00;24.10;;;23.20;43.90;;;;;;222157;1266;24348;-56
2024/01/09 03:32:11;;;;;;;32.10;22.60;;;23.20;43.80;;;;;;221893;1265;22766;-56
2024/01/09 03:37:15;;;;;;;31.90;22.50;;;23.20;43.80;;;;;;222060;1269;24245;-55
2024/01/09 03:42:19;;;;;;;33.70;22.40;;;23.10;43.80;;;;;;222221;1265;22705;-56
2024/01/09 03:47:23;;;;;;;33.60;21.60;;;23.10;43.80;;;;;;222699;1268;22529;-56
2024/01/09 03:52:27;;;;;;;31.00;22.10;;;23.10;43.70;;;;;;222264;1263;24198;-55
2024/01/09 03:57:32;;;;;;;31.50;22.10;;;23.10;43.70;;;;;;222212;1265;27052;-55
2024/01/09 04:02:37;;;;;;;31.30;20.90;;;23.10;43.60;;;;;;222132;1263;22552;-57
2024/01/09 04:07:41;;;;;;;31.70;21.30;;;23.10;43.50;;;;;;222814;1266;22769;-56
2024/01/09 04:12:45;;;;;;;31.90;21.60;;;23.20;43.50;;;;;;222394;1265;24175;-57
2024/01/09 04:17:51;;;;;;;27.50;20.20;;;23.20;43.50;;;;;;222256;1263;22520;-56
2024/01/09 04:22:55;;;;;;;29.30;20.60;;;23.20;43.30;;;;;;222384;1265;22583;-56
2024/01/09 04:28:00;;;;;;;28.50;20.90;;;23.20;43.70;;;;;;222235;1264;22521;-55
2024/01/09 04:33:04;;;;;;;26.40;19.70;;;23.20;42.80;;;;;;222081;1268;26476;-56
2024/01/09 04:38:09;;;;;;;25.80;18.90;;;23.10;43.30;;;;;;222220;1263;24276;-57
2024/01/09 04:43:13;;;;;;;27.50;18.40;;;23.10;43.50;;;;;;222121;1268;24368;-56
2024/01/09 04:48:17;;;;;;;26.70;18.40;;;23.10;43.40;;;;;;221960;1263;22552;-57
2024/01/09 04:53:22;;;;;;;26.50;19.30;;;23.30;43.20;;;;;;222159;1266;22514;-55
2024/01/09 04:58:26;;;;;;;24.40;18.90;;;23.20;43.10;;;;;;221868;1265;22642;-57
2024/01/09 05:03:30;;;;;;;23.80;18.10;;;23.20;43.20;;;;;;221900;1265;24239;-56
2024/01/09 05:08:34;;;;;;;23.50;18.80;;;23.20;43.20;;;;;;222384;1266;22914;-57
2024/01/09 05:13:39;;;;;;;24.50;18.30;;;23.20;43.20;;;;;;222289;1267;22525;-57
2024/01/09 05:18:44;;;;;;;24.40;18.00;;;23.10;43.10;;;;;;222293;1265;26629;-55
2024/01/09 05:23:53;;;;;;;23.90;18.00;;;23.10;42.90;;;;;;222400;1265;23908;-55
2024/01/09 05:28:57;;;;;;;25.30;17.80;;;23.20;42.80;;;;;;222190;1268;24221;-55
2024/01/09 05:34:01;;;;;;;22.20;17.50;;;23.00;42.80;;;;;;222138;1259;23264;-54
2024/01/09 05:39:06;;;;;;;21.40;17.70;;;23.10;42.80;;;;;;221901;1266;24198;-55
2024/01/09 05:44:10;;;;;;;22.90;17.50;;;23.00;43.00;;;;;;221491;1262;739419;-57
2024/01/09 05:49:14;;;;;;;25.70;18.80;;;22.70;43.20;;;;;;221951;1268;22780;-57
2024/01/09 05:54:19;;;;;;;21.20;17.30;;;22.50;43.50;;;;;;221964;1268;24216;-55
2024/01/09 05:59:23;;;;;;;23.40;16.80;;;22.70;43.40;;;;;;222132;1266;22654;-57
2024/01/09 06:04:27;;;;;;;24.00;16.80;;;22.80;44.00;;;;;;223665;1268;22762;-55
2024/01/09 06:09:32;;;;;;;22.00;15.40;;;23.00;42.90;;;;;;222546;1266;24230;-54
2024/01/09 06:14:37;;;;;;;20.40;15.80;;;23.30;43.10;;;;;;223012;1268;24228;-55
2024/01/09 06:19:41;;;;;;;20.10;16.50;;;23.40;42.10;;;;;;222150;1270;22562;-54
2024/01/09 06:24:45;;;;;;;23.60;17.20;;;23.10;42.50;;;;;;223877;1249;24205;-54
2024/01/09 06:29:49;;;;;;;18.50;15.70;;;23.00;42.60;;;;;;222626;1269;24234;-55
2024/01/09 06:34:53;;;;;;;24.90;16.00;;;22.90;42.90;;;;;;221815;1266;24244;-58
2024/01/09 06:39:58;;;;;;;28.50;16.80;;;22.90;43.10;;;;;;222198;1268;22531;-58
2024/01/09 06:45:02;;;;;;;26.70;16.70;;;22.80;43.10;;;;;;222373;1266;22580;-49
2024/01/09 06:50:07;;;;;;;22.60;15.40;;;22.70;43.80;;;;;;222300;1261;23918;-54
2024/01/09 06:55:29;;;;;;;21.70;16.20;;;22.50;43.40;;;;;;222308;1266;24197;-51
2024/01/09 07:00:34;;;;;;;26.10;16.70;;;22.50;44.20;;;;;;222065;1256;23377;-53
2024/01/09 07:05:38;;;;;;;21.60;15.70;;;22.40;44.80;;;;;;222155;1268;24351;-54
2024/01/09 07:10:43;;;;;;;25.20;15.40;;;22.50;44.80;;;;;;222097;1265;25521;-49
2024/01/09 07:15:47;;;;;;;23.60;15.60;;;22.60;44.50;;;;;;221740;1268;24230;-49
2024/01/09 07:20:51;;;;;;;28.80;16.80;;;22.60;45.10;;;;;;222284;1268;22524;-51
2024/01/09 07:25:55;;;;;;;24.90;15.40;;;22.70;44.70;;;;;;222021;1266;24407;-51
2024/01/09 07:30:59;;;;;;;20.90;14.80;;;22.70;45.20;;;;;;221918;1263;22537;-51
2024/01/09 07:36:06;;;;;;;25.30;16.00;;;22.90;45.20;;;;;;221848;1269;23535;-51
2024/01/09 07:41:12;;;;;;;23.00;15.00;;;22.90;45.30;;;;;;222089;1268;22642;-50
2024/01/09 07:46:17;;;;;;;23.60;15.70;;;23.00;44.80;;;;;;222099;1268;24199;-52
2024/01/09 07:51:21;;;;;;;27.00;15.60;;;23.00;44.80;;;;;;221844;1262;22629;-50
2024/01/09 07:56:26;;;;;;;23.50;15.90;;;22.90;45.20;;;;;;222297;1266;23224;-52
2024/01/09 08:01:40;;;;;;;24.40;15.60;;;22.70;44.90;;;;;;222856;1264;24205;-51
2024/01/09 08:06:44;;;;;;;28.00;17.60;;;22.60;44.80;;;;;;222274;1268;24444;-48
2024/01/09 08:11:52;;;;;;;26.20;17.30;;;22.40;44.30;;;;;;222188;1260;22765;-51
2024/01/09 08:16:56;;;;;;;25.10;17.30;;;22.50;44.10;;;;;;223513;1265;25489;-50
2024/01/09 08:22:00;;;;;;;26.60;16.60;;;22.40;44.50;;;;;;221991;1267;24207;-50
2024/01/09 08:27:05;;;;;;;23.10;16.70;;;22.40;44.30;;;;;;222150;1264;24196;-51
2024/01/09 08:32:11;;;;;;;26.00;17.00;;;22.60;43.70;;;;;;222039;1268;22517;-52
2024/01/09 08:37:15;;;;;;;25.20;17.90;;;22.60;42.80;;;;;;222368;1257;22521;-48
2024/01/09 08:42:20;;;;;;;26.90;17.30;;;22.60;43.10;;;;;;221830;1262;22742;-54
2024/01/09 08:47:24;;;;;;;24.20;16.60;;;22.80;42.90;;;;;;221907;1261;24266;-54
2024/01/09 08:52:28;;;;;;;26.20;17.00;;;22.80;42.20;;;;;;222205;1264;22540;-49
2024/01/09 08:57:32;;;;;;;26.10;17.10;;;22.90;42.30;;;;;;222021;1268;24355;-49
2024/01/09 09:02:36;;;;;;;26.90;16.10;;;23.00;42.10;;;;;;221811;1266;25403;-50
2024/01/09 09:07:41;;;;;;;22.00;16.90;;;23.00;42.10;;;;;;221918;1266;22547;-54
2024/01/09 09:12:45;;;;;;;20.90;15.70;;;22.90;42.20;;;;;;221951;1265;24190;-52
2024/01/09 09:17:49;;;;;;;25.40;16.70;;;22.80;42.40;;;;;;222854;1266;22662;-50
2024/01/09 09:22:53;;;;;;;21.60;15.60;;;22.80;42.80;;;;;;221897;1266;24184;-49
2024/01/09 09:27:58;;;;;;;22.20;16.80;;;22.70;42.50;;;;;;222273;1263;22992;-49
2024/01/09 09:33:06;;;;;;;20.30;15.30;;;22.70;42.70;;;;;;222198;1267;22519;-51
2024/01/09 09:38:10;;;;;;;22.90;16.20;;;22.60;41.80;;;;;;222065;1268;24246;-52
2024/01/09 09:43:24;;;;;;;19.50;15.10;;;22.60;42.20;;;;;;221855;1268;24266;-52
2024/01/09 09:48:28;;;;;;;20.60;15.10;;;22.70;42.20;;;;;;221374;1270;22520;-51
2024/01/09 09:53:33;;;;;;;21.80;15.50;;;22.60;42.60;;;;;;221395;1250;23810;-53
2024/01/09 09:58:37;;;;;;;21.00;15.90;;;22.70;42.20;;;;;;221315;1267;25550;-52
2024/01/09 10:04:02;;;;;;;20.40;15.10;;;22.70;42.10;;;;;;221605;1268;22569;-50
2024/01/09 10:09:11;;;;;;;17.60;14.40;;;22.90;41.60;;;;;;222158;1261;24389;-51
2024/01/09 10:14:16;;;;;;;18.50;15.50;;;23.10;42.20;;;;;;222501;1263;22665;-54
2024/01/09 10:19:22;;;;;;;22.40;14.90;;;23.30;41.20;;;;;;222239;1264;22484;-50
2024/01/09 10:24:27;;;;;;;18.20;13.60;;;23.30;41.10;;;;;;221894;1267;24196;-52
2024/01/09 10:29:31;;;;;;;17.30;13.90;;;23.20;41.20;;;;;;221970;1267;25398;-51
2024/01/09 10:34:35;;;;;;;21.50;15.40;;;23.10;41.40;;;;;;222047;1268;22679;-54
2024/01/09 10:39:41;;;;;;;17.80;14.80;;;23.00;41.60;;;;;;221931;1255;24238;-53
2024/01/09 10:44:49;;;;;;;19.10;14.40;;;22.90;41.60;;;;;;222628;1264;22801;-52
2024/01/09 10:49:54;;;;;;;18.90;14.00;;;22.90;41.60;;;;;;222406;1268;22512;-56
2024/01/09 10:54:59;;;;;;;18.90;14.10;;;22.80;41.60;;;;;;222501;1262;24249;-51
2024/01/09 11:00:08;;;;;;;18.30;13.80;;;22.70;41.60;;;;;;222128;1267;25287;-54
2024/01/09 11:05:13;;;;;;;19.60;14.10;;;22.80;41.60;;;;;;222147;1254;25443;-51
2024/01/09 11:10:20;;;;;;;19.70;13.60;;;22.70;41.60;;;;;;222186;1247;23222;-51
2024/01/09 11:15:29;;;;;;;16.90;13.60;;;22.60;41.60;;;;;;223637;1268;22563;-52
2024/01/09 11:20:34;;;;;;;17.10;13.30;;;22.70;41.60;;;;;;222197;1267;24377;-50
2024/01/09 11:25:38;;;;;;;15.50;12.90;;;22.70;41.60;;;;;;222075;1261;23717;-53
2024/01/09 11:30:42;;;;;;;17.80;12.90;;;22.80;41.50;;;;;;222318;1264;23393;-52
2024/01/09 11:35:48;;;;;;;16.20;13.30;;;23.00;41.60;;;;;;222089;1263;24192;-50
2024/01/09 11:40:52;;;;;;;14.20;12.70;;;23.30;41.10;;;;;;221815;1268;24248;-53
2024/01/09 11:45:56;;;;;;;15.70;12.60;;;23.40;40.50;;;;;;222134;1264;22539;-50
2024/01/09 11:51:01;;;;;;;18.10;13.30;;;23.50;41.60;;;;;;222064;1268;24194;-53
2024/01/09 11:56:12;;;;;;;17.10;13.20;;;23.50;41.30;;;;;;222339;1267;22566;-52
2024/01/09 12:01:19;;;;;;;13.70;12.20;;;23.40;42.30;;;;;;222307;1263;24236;-54
2024/01/09 12:06:26;;;;;;;15.70;13.00;;;23.30;43.40;;;;;;222479;1260;22517;-49
2024/01/09 12:11:31;;;;;;;19.00;14.20;;;23.20;43.00;;;;;;222853;1264;25386;-52
2024/01/09 12:16:35;;;;;;;15.90;13.70;;;23.00;43.60;;;;;;222674;1264;24088;-52
2024/01/09 12:21:39;;;;;;;16.80;12.50;;;22.90;44.10;;;;;;222468;1267;22551;-50
2024/01/09 12:26:44;;;;;;;14.90;12.00;;;22.90;44.20;;;;;;222272;1261;24344;-53
2024/01/09 12:31:49;;;;;;;14.10;12.30;;;22.80;44.50;;;;;;222317;1263;25490;-51
2024/01/09 12:36:55;;;;;;;14.00;12.50;;;22.80;44.90;;;;;;222372;1268;23897;-51
2024/01/09 12:42:16;;;;;;;14.50;11.90;;;22.70;45.20;;;;;;222811;1263;24188;-52
2024/01/09 12:47:21;;;;;;;14.70;12.10;;;22.60;45.50;;;;;;221966;1256;24199;-49
2024/01/09 12:52:25;;;;;;;16.70;12.70;;;22.60;45.60;;;;;;222374;1267;24422;-49
2024/01/09 12:57:30;;;;;;;15.60;12.30;;;22.60;45.60;;;;;;222794;1266;22743;-51
2024/01/09 13:02:34;;;;;;;13.60;11.90;;;22.50;46.10;;;;;;222681;1261;25326;-51
2024/01/09 13:07:39;;;;;;;14.10;11.40;;;22.50;45.90;;;;;;222425;1266;24189;-52
2024/01/09 13:12:43;;;;;;;14.30;11.80;;;22.50;45.80;;;;;;222321;1261;24263;-51
2024/01/09 13:17:47;;;;;;;15.80;12.30;;;22.60;45.50;;;;;;222118;1254;22521;-54
2024/01/09 13:22:52;;;;;;;17.10;12.70;;;22.50;45.00;;;;;;222459;1267;24256;-53
2024/01/09 13:27:59;;;;;;;14.10;12.00;;;22.70;44.60;;;;;;222819;1264;22625;-51
2024/01/09 13:33:04;;;;;;;15.30;11.40;;;22.80;44.40;;;;;;222755;1263;24295;-50
2024/01/09 13:38:09;;;;;;;14.90;12.30;;;23.10;44.30;;;;;;222230;1268;23903;-50
2024/01/09 13:43:13;;;;;;;12.90;11.10;;;23.40;43.60;;;;;;222387;1265;23132;-53
2024/01/09 13:48:18;;;;;;;14.60;11.80;;;23.40;43.60;;;;;;222406;1264;22986;-52
2024/01/09 13:53:22;;;;;;;15.30;12.80;;;23.40;44.30;;;;;;222374;1266;25281;-51
2024/01/09 13:58:35;;;;;;;14.10;12.10;;;23.30;43.90;;;;;;222173;1264;22530;-49
2024/01/09 14:03:40;;;;;;;14.50;11.50;;;23.20;44.30;;;;;;222205;1260;24234;-49
2024/01/09 14:08:44;;;;;;;12.80;10.80;;;23.00;44.70;;;;;;222466;1260;24213;-49
2024/01/09 14:13:48;;;;;;;20.30;11.40;;;22.90;45.50;;;;;;222183;1261;22829;-50
2024/01/09 14:18:52;;;;;;;12.90;11.20;;;22.70;45.60;;;;;;222386;1261;26580;-53
2024/01/09 14:23:57;;;;;;;15.70;11.40;;;22.60;45.80;;;;;;222247;1263;22544;-53
2024/01/09 14:29:01;;;;;;;15.60;11.90;;;22.50;46.00;;;;;;222350;1252;24260;-52
2024/01/09 14:34:05;;;;;;;17.70;11.50;;;22.50;46.10;;;;;;223970;1261;22615;-50
2024/01/09 14:39:11;;;;;;;14.40;11.70;;;22.50;46.10;;;;;;223045;1267;22668;-52
2024/01/09 14:44:15;;;;;;;16.70;12.60;;;22.60;45.30;;;;;;222506;1260;22541;-51
2024/01/09 14:49:19;;;;;;;16.40;12.30;;;22.50;43.60;;;;;;222405;1263;24281;-51
2024/01/09 14:54:28;;;;;;;15.60;13.10;;;22.50;42.80;;;;;;222374;1267;24202;-53
2024/01/09 14:59:32;;;;;;;18.00;13.50;;;22.60;42.60;;;;;;222423;1264;24183;-52
2024/01/09 15:04:37;;;;;;;17.20;14.10;;;22.80;42.60;;;;;;222310;1262;23326;-50
2024/01/09 15:09:43;;;;;;;18.80;13.20;;;23.10;42.10;;;;;;222849;1260;22527;-55
2024/01/09 15:14:47;;;;;;;19.70;14.40;;;23.20;42.10;;;;;;222507;1267;24266;-53
2024/01/09 15:19:52;;;;;;;20.90;15.60;;;23.10;41.80;;;;;;222363;1261;25363;-54
2024/01/09 15:24:56;;;;;;;21.40;15.00;;;23.00;42.00;;;;;;222140;1267;24333;-51
2024/01/09 15:30:00;;;;;;;25.10;16.70;;;22.90;42.10;;;;;;222077;1267;24203;-50
2024/01/09 15:35:08;;;;;;;24.60;17.20;;;22.70;42.30;;;;;;222432;1264;22549;-50
2024/01/09 15:40:13;;;;;;;25.20;17.90;;;22.60;42.50;;;;;;223586;1264;22517;-51
2024/01/09 15:45:20;;;;;;;23.40;17.70;;;22.60;42.50;;;;;;222586;1266;24749;-53
2024/01/09 15:50:25;;;;;;;26.60;18.30;;;22.50;42.30;;;;;;222383;1267;24189;-51
2024/01/09 15:55:29;;;;;;;31.30;20.10;;;22.40;42.20;;;;;;222752;1260;24189;-55
2024/01/09 16:00:35;;;;;;;23.90;18.50;;;22.50;42.30;;;;;;221867;1253;24386;-56
2024/01/09 16:05:39;;;;;;;25.90;19.70;;;22.50;42.80;;;;;;221955;1261;22524;-55
2024/01/09 16:10:43;;;;;;;25.50;19.00;;;22.60;42.50;;;;;;222712;1259;25840;-51
2024/01/09 16:15:47;;;;;;;30.40;18.80;;;22.70;43.20;;;;;;222851;1263;26506;-56
2024/01/09 16:20:52;;;;;;;27.60;18.00;;;22.90;45.80;;;;;;222615;1260;22577;-54
2024/01/09 16:25:56;;;;;;;29.00;20.00;;;23.00;45.50;;;;;;222651;1260;24176;-56
2024/01/09 16:31:00;;;;;;;28.50;19.80;;;23.00;44.40;;;;;;222465;1260;22734;-52
2024/01/09 16:36:07;;;;;;;28.00;19.50;;;23.10;44.80;;;;;;222147;1264;22564;-55
2024/01/09 16:41:11;;;;;;;30.80;20.30;;;23.10;45.60;;;;;;222271;1265;24299;-57
2024/01/09 16:46:16;;;;;;;32.30;20.60;;;22.90;46.60;;;;;;222198;1268;22526;-51
2024/01/09 16:51:20;;;;;;;29.50;20.30;;;22.70;46.30;;;;;;221918;1266;22715;-54
2024/01/09 16:56:26;;;;;;;30.40;20.90;;;22.60;46.00;;;;;;222438;1262;22675;-59
2024/01/09 17:01:29;;;;;;;26.30;20.50;;;22.50;46.20;;;;;;222558;1262;25283;-59
2024/01/09 17:06:34;;;;;;;29.40;21.00;;;22.50;47.10;;;;;;222340;1257;22516;-60
2024/01/09 17:11:40;;;;;;;29.40;21.60;;;22.70;46.60;;;;;;222600;1259;22692;-60
2024/01/09 17:16:45;;;;;;;31.00;22.30;;;22.80;45.70;;;;;;222638;1264;22517;-59
2024/01/09 17:21:51;;;;;;;29.40;21.40;;;23.00;44.90;;;;;;222131;1261;25902;-60
2024/01/09 17:26:55;;;;;;;27.40;20.00;;;23.10;44.50;;;;;;222160;1265;23652;-60
2024/01/09 17:31:59;;;;;;;32.10;21.00;;;23.00;44.40;;;;;;221955;1265;22523;-52
2024/01/09 17:37:03;;;;;;;27.30;20.10;;;23.10;43.90;;;;;;230238;1263;22188;-53
2024/01/09 17:42:08;;;;;;;29.60;19.70;;;23.10;44.00;;;;;;230131;1253;22293;-51
2024/01/09 17:47:11;;;;;;;26.30;19.90;;;23.30;43.20;;;;;;222698;1265;242496;-57
2024/01/09 17:52:15;;;;;;;29.00;21.20;;;23.30;43.00;;;;;;222329;1264;22527;-51
2024/01/09 17:57:19;;;;;;;29.00;20.90;;;23.10;43.10;;;;;;222488;1265;24264;-50
2024/01/09 18:02:24;;;;;;;30.40;19.90;;;23.10;43.00;;;;;;224570;1262;22551;-47
2024/01/09 18:07:28;;;;;;;32.60;22.00;;;23.10;42.80;;;;;;223132;1253;22539;-50
2024/01/09 18:12:35;;;;;;;28.20;19.40;;;23.00;42.50;;;;;;223311;1261;22640;-54
2024/01/09 18:17:41;;;;;;;27.30;20.10;;;22.90;42.80;;;;;;222304;1260;24193;-53
2024/01/09 18:22:46;;;;;;;25.20;19.90;;;22.60;42.50;;;;;;222047;1262;26431;-49
2024/01/09 18:27:50;;;;;;;25.30;19.90;;;22.60;42.60;;;;;;222409;1265;25345;-53
2024/01/09 18:32:54;;;;;;;26.90;20.10;;;22.70;42.40;;;;;;222218;1265;22523;-50
2024/01/09 18:38:00;;;;;;;28.80;20.10;;;22.70;42.30;;;;;;222631;1263;24212;-51
2024/01/09 18:43:07;;;;;;;25.20;20.20;;;22.90;42.00;;;;;;222407;1248;24408;-55
2024/01/09 18:48:15;;;;;;;30.70;19.50;;;23.00;41.60;;;;;;222967;1258;26692;-54
2024/01/09 18:53:19;;;;;;;29.30;19.90;;;23.10;41.60;;;;;;222400;1260;22654;-57
2024/01/09 18:58:25;;;;;;;31.00;21.10;;;23.20;41.40;;;;;;222091;1262;24197;-54
2024/01/09 19:03:30;;;;;;;24.70;19.30;;;23.10;41.10;;;;;;222370;1267;22552;-54
2024/01/09 19:08:35;;;;;;;25.50;19.90;;;23.10;41.20;;;;;;222455;1262;22521;-55
2024/01/09 19:13:40;;;;;;;26.60;19.80;;;23.00;41.30;;;;;;222447;1268;24190;-56
2024/01/09 19:18:49;;;;;;;25.20;20.20;;;22.90;40.70;;;;;;222726;1264;25231;-55
2024/01/09 19:23:53;;;;;;;26.30;19.90;;;22.80;40.80;;;;;;222628;1265;25039;-52
2024/01/09 19:28:57;;;;;;;27.60;19.90;;;22.60;40.90;;;;;;222510;1265;24328;-54
2024/01/09 19:34:02;;;;;;;26.30;19.80;;;22.50;41.10;;;;;;222794;1267;23141;-55
2024/01/09 19:39:07;;;;;;;26.00;20.20;;;22.50;40.80;;;;;;222482;1267;24192;-56
2024/01/09 19:44:12;;;;;;;24.70;20.20;;;22.60;40.40;;;;;;222193;1262;24203;-56
2024/01/09 19:49:17;;;;;;;26.30;19.80;;;22.60;40.40;;;;;;222190;1262;23883;-56
2024/01/09 19:54:21;;;;;;;28.00;19.60;;;22.70;40.00;;;;;;222306;1261;25285;-56
2024/01/09 19:59:27;;;;;;;26.20;18.80;;;22.70;40.00;;;;;;222322;1257;25407;-53
2024/01/09 20:04:33;;;;;;;22.30;18.90;;;22.80;39.80;;;;;;222487;1267;25298;-56
2024/01/09 20:09:41;;;;;;;29.50;19.90;;;22.90;39.80;;;;;;222299;1265;25350;-57
2024/01/09 20:14:45;;;;;;;26.50;20.50;;;22.90;39.60;;;;;;222237;1254;24163;-55
2024/01/09 20:19:50;;;;;;;25.30;19.80;;;22.90;39.20;;;;;;222307;1263;26472;-51
2024/01/09 20:24:56;;;;;;;26.30;20.30;;;22.90;39.30;;;;;;222526;1264;22633;-55
2024/01/09 20:30:00;;;;;;;28.40;20.20;;;23.00;38.70;;;;;;222576;1263;22705;-51
2024/01/09 20:35:06;;;;;;;24.70;19.00;;;23.00;39.50;;;;;;222175;1267;22528;-55
2024/01/09 20:40:12;;;;;;;26.60;20.60;;;22.90;40.00;;;;;;222573;1263;24289;-57
2024/01/09 20:45:17;;;;;;;29.60;21.50;;;22.80;39.60;;;;;;222336;1262;24181;-54
2024/01/09 20:50:27;;;;;;;32.60;21.30;;;22.70;41.00;;;;;;222365;1265;22647;-50
2024/01/09 20:55:34;;;;;;;25.90;21.10;;;22.80;40.70;;;;;;221704;1266;25607;-49
2024/01/09 21:00:48;;;;;;;34.60;24.70;;;22.70;41.20;;;;;;222302;1264;22626;-51
2024/01/09 21:05:53;;;;;;;36.10;23.90;;;22.90;43.50;;;;;;221725;1266;24228;-53
2024/01/09 21:10:58;;;;;;;34.40;23.70;;;22.80;42.80;;;;;;222630;1267;24183;-50
2024/01/09 21:16:04;;;;;;;36.80;24.10;;;22.70;42.30;;;;;;222958;1262;22708;-52
2024/01/09 21:21:13;;;;;;;34.90;25.70;;;22.70;41.50;;;;;;222777;1262;23272;-51
2024/01/09 21:26:18;;;;;;;35.10;25.40;;;22.60;42.50;;;;;;222358;1267;24439;-52
2024/01/09 21:31:23;;;;;;;34.50;25.50;;;22.40;42.90;;;;;;222571;1262;22583;-51
2024/01/09 21:36:35;;;;;;;37.80;27.70;;;22.70;42.70;;;;;;222851;1263;22891;-51
2024/01/09 21:41:39;;;;;;;37.20;27.70;;;22.90;41.70;;;;;;222597;1267;22523;-55
2024/01/09 21:46:44;;;;;;;40.60;29.50;;;23.00;42.50;;;;;;222223;1268;25608;-55
2024/01/09 21:51:49;;;;;;;51.70;37.60;;;23.10;41.60;;;;;;221416;1265;22583;-54
2024/01/09 21:56:53;;;;;;;75.90;49.80;;;23.20;40.60;;;;;;220499;1274;24278;-54
2024/01/09 22:01:58;;;;;;;117.30;69.40;;;23.30;40.50;;;;;;220465;1276;23914;-54
2024/01/09 22:07:20;;;;;;;137.70;78.20;;;23.20;40.70;;;;;;220458;1269;22563;-53
2024/01/09 22:12:25;;;;;;;141.80;81.50;;;23.00;40.60;;;;;;220949;1269;23890;-53
2024/01/09 22:17:30;;;;;;;135.20;74.20;;;23.00;41.10;;;;;;222543;1265;22540;-55
2024/01/09 22:22:35;;;;;;;125.10;73.30;;;23.00;41.30;;;;;;222604;1267;22524;-50
2024/01/09 22:27:49;;;;;;;134.40;69.50;;;22.90;41.40;;;;;;222323;1259;24210;-54
2024/01/09 22:32:57;;;;;;;122.00;67.80;;;22.90;41.20;;;;;;222512;1266;22529;-54
2024/01/09 22:38:02;;;;;;;112.00;64.20;;;22.90;41.10;;;;;;222247;1263;22519;-54
2024/01/09 22:43:07;;;;;;;101.00;63.30;;;22.80;41.70;;;;;;222561;1262;22530;-53
2024/01/09 22:48:12;;;;;;;104.00;60.70;;;22.80;41.70;;;;;;222590;1264;22765;-54
2024/01/09 22:53:16;;;;;;;96.00;59.20;;;22.80;41.20;;;;;;222024;1263;24226;-54
2024/01/09 22:58:21;;;;;;;97.70;60.30;;;22.90;41.10;;;;;;222018;1262;22644;-55
2024/01/09 23:03:26;;;;;;;94.90;59.30;;;23.00;41.40;;;;;;222524;1266;24204;-55
2024/01/09 23:08:31;;;;;;;95.70;58.00;;;22.90;41.00;;;;;;222310;1263;24180;-54
2024/01/09 23:14:10;;;;;;;100.50;56.40;;;22.80;41.00;;;;;;222330;1262;22752;-53
2024/01/09 23:19:15;;;;;;;101.10;57.10;;;23.10;48.10;;;;;;222159;1262;24067;-54
2024/01/09 23:24:19;;;;;;;90.30;55.60;;;23.30;47.60;;;;;;222256;1262;24225;-53
2024/01/09 23:29:24;;;;;;;88.30;54.20;;;23.30;47.30;;;;;;221439;1266;25653;-54
2024/01/09 23:34:29;;;;;;;78.50;52.60;;;23.40;46.80;;;;;;222839;1257;22563;-52
2024/01/09 23:39:40;;;;;;;84.10;51.40;;;23.40;46.70;;;;;;221812;1269;22527;-53
2024/01/09 23:44:44;;;;;;;81.70;53.70;;;23.30;46.10;;;;;;221759;1267;22598;-56
2024/01/09 23:49:49;;;;;;;80.60;51.90;;;23.10;46.30;;;;;;222553;1259;24214;-55
2024/01/09 23:54:53;;;;;;;79.40;51.10;;;22.90;46.20;;;;;;222129;1256;24222;-56
2024/01/09 23:59:58;;;;;;;81.30;50.00;;;22.90;46.20;;;;;;223162;1262;24181;-55
